Time,TemperatureF,DewpointF,PressureIn,WindDirection,WindDirectionDegrees,WindSpeedMPH,WindSpeedGustMPH,Humidity,HourlyPrecipIn,Conditions,Clouds,dailyrainin,SoftwareType,DateUTC
2013-01-16 00:10:00,45.3,44.0,29.95,NW,311,8.0,8.0,95,0.00,,,0.00,weatherlink.com 1.10,2013-01-16 06:10:00,
2013-01-16 00:26:00,45.1,44.0,29.95,WNW,283,4.0,8.0,95,0.00,,,0.00,weatherlink.com 1.10,2013-01-16 06:26:00,
2013-01-16 00:41:00,44.7,43.0,29.95,WNW,286,2.0,7.0,95,0.00,,,0.00,weatherlink.com 1.10,2013-01-16 06:41:00,
2013-01-16 00:56:00,44.6,43.0,29.95,WNW,299,2.0,3.0,95,0.00,,,0.00,weatherlink.com 1.10,2013-01-16 06:56:00,
2013-01-16 01:11:00,44.5,43.0,29.95,WNW,302,2.0,4.0,95,0.00,,,0.00,weatherlink.com 1.10,2013-01-16 07:11:00,
2013-01-16 01:26:00,44.4,43.0,29.95,WNW,284,0.0,0.0,95,0.00,,,0.00,weatherlink.com 1.10,2013-01-16 07:26:00,
2013-01-16 01:41:00,44.4,43.0,29.96,NW,311,1.0,3.0,95,0.00,,,0.00,weatherlink.com 1.10,2013-01-16 07:41:00,
2013-01-16 01:56:00,44.0,43.0,29.97,NW,309,2.0,7.0,95,0.00,,,0.00,weatherlink.com 1.10,2013-01-16 07:56:00,
2013-01-16 02:11:00,43.6,42.0,29.96,WNW,302,5.0,8.0,95,0.00,,,0.00,weatherlink.com 1.10,2013-01-16 08:11:00,
2013-01-16 02:26:00,43.3,42.0,29.96,West,273,3.0,7.0,95,0.00,,,0.00,weatherlink.com 1.10,2013-01-16 08:26:00,
2013-01-16 02:41:00,42.8,41.0,29.96,NW,312,3.0,10.0,94,0.01,,,0.01,weatherlink.com 1.10,2013-01-16 08:41:00,
2013-01-16 02:56:00,42.4,41.0,29.97,WNW,299,3.0,7.0,94,0.01,,,0.01,weatherlink.com 1.10,2013-01-16 08:56:00,
2013-01-16 03:11:00,42.1,41.0,29.97,NW,321,0.0,7.0,94,0.01,,,0.01,weatherlink.com 1.10,2013-01-16 09:11:00,
2013-01-16 03:26:00,42.0,40.0,29.97,WNW,296,8.0,8.0,94,0.01,,,0.01,weatherlink.com 1.10,2013-01-16 09:26:00,
2013-01-16 03:41:00,41.8,40.0,29.98,WNW,294,2.0,8.0,94,0.00,,,0.01,weatherlink.com 1.10,2013-01-16 09:41:00,
2013-01-16 03:56:00,41.6,40.0,29.97,NW,315,2.0,6.0,94,0.00,,,0.01,weatherlink.com 1.10,2013-01-16 09:56:00,
2013-01-16 04:11:00,41.6,40.0,29.97,North,355,0.0,3.0,94,0.00,,,0.01,weatherlink.com 1.10,2013-01-16 10:11:00,
2013-01-16 04:26:00,41.5,40.0,29.98,WNW,294,0.0,4.0,94,0.00,,,0.01,weatherlink.com 1.10,2013-01-16 10:26:00,
2013-01-16 04:41:00,41.4,40.0,29.98,NW,309,0.0,8.0,94,0.00,,,0.01,weatherlink.com 1.10,2013-01-16 10:41:00,
2013-01-16 04:56:00,41.3,40.0,29.97,WNW,284,0.0,4.0,94,0.00,,,0.01,weatherlink.com 1.10,2013-01-16 10:56:00,
2013-01-16 05:11:00,41.3,40.0,29.98,WNW,301,4.0,4.0,94,0.00,,,0.01,weatherlink.com 1.10,2013-01-16 11:11:00,
2013-01-16 05:26:00,41.2,40.0,29.98,NW,304,2.0,7.0,94,0.00,,,0.01,weatherlink.com 1.10,2013-01-16 11:26:00,
2013-01-16 05:41:00,41.0,39.0,29.97,NNE,15,0.0,7.0,94,0.00,,,0.01,weatherlink.com 1.10,2013-01-16 11:41:00,
2013-01-16 05:56:00,41.0,39.0,29.98,WNW,291,4.0,5.0,94,0.00,,,0.01,weatherlink.com 1.10,2013-01-16 11:56:00,
2013-01-16 06:11:00,40.9,39.0,29.98,NNW,340,1.0,5.0,94,0.00,,,0.01,weatherlink.com 1.10,2013-01-16 12:11:00,
2013-01-16 06:26:00,40.9,39.0,29.99,NW,308,0.0,2.0,94,0.00,,,0.01,weatherlink.com 1.10,2013-01-16 12:26:00,
2013-01-16 06:41:00,40.9,39.0,30.00,NW,311,2.0,3.0,94,0.00,,,0.01,weatherlink.com 1.10,2013-01-16 12:41:00,
2013-01-16 06:56:00,40.9,39.0,29.99,NE,48,0.0,3.0,94,0.00,,,0.01,weatherlink.com 1.10,2013-01-16 12:56:00,
2013-01-16 07:11:00,40.9,39.0,30.00,NW,321,0.0,3.0,94,0.00,,,0.01,weatherlink.com 1.10,2013-01-16 13:11:00,
2013-01-16 07:26:00,40.9,39.0,30.01,West,273,3.0,3.0,94,0.00,,,0.01,weatherlink.com 1.10,2013-01-16 13:26:00,
2013-01-16 07:41:00,41.0,39.0,30.01,NW,315,0.0,4.0,94,0.00,,,0.01,weatherlink.com 1.10,2013-01-16 13:41:00,
2013-01-16 07:56:00,41.0,39.0,30.02,NW,312,0.0,4.0,94,0.00,,,0.01,weatherlink.com 1.10,2013-01-16 13:56:00,
2013-01-16 08:11:00,41.1,40.0,30.04,WNW,292,3.0,5.0,94,0.01,,,0.02,weatherlink.com 1.10,2013-01-16 14:11:00,
2013-01-16 08:26:00,41.0,39.0,30.04,NW,314,1.0,6.0,94,0.01,,,0.02,weatherlink.com 1.10,2013-01-16 14:26:00,
2013-01-16 08:41:00,41.0,39.0,30.05,WNW,288,4.0,7.0,94,0.01,,,0.02,weatherlink.com 1.10,2013-01-16 14:41:00,
2013-01-16 08:56:00,41.0,39.0,30.05,WNW,283,2.0,4.0,94,0.03,,,0.04,weatherlink.com 1.10,2013-01-16 14:56:00,
2013-01-16 09:11:00,41.0,39.0,30.06,WNW,294,3.0,3.0,94,0.04,,,0.06,weatherlink.com 1.10,2013-01-16 15:11:00,
2013-01-16 09:26:00,41.1,40.0,30.06,NW,309,0.0,4.0,94,0.04,,,0.06,weatherlink.com 1.10,2013-01-16 15:26:00,
2013-01-16 09:41:00,41.3,40.0,30.07,NW,319,0.0,4.0,94,0.06,,,0.08,weatherlink.com 1.10,2013-01-16 15:41:00,
2013-01-16 09:56:00,41.3,40.0,30.07,North,5,0.0,5.0,93,0.05,,,0.09,weatherlink.com 1.10,2013-01-16 15:56:00,
2013-01-16 10:11:00,41.4,40.0,30.05,NNW,344,0.0,4.0,94,0.04,,,0.10,weatherlink.com 1.10,2013-01-16 16:11:00,
2013-01-16 10:26:00,41.5,40.0,30.05,North,349,0.0,4.0,94,0.05,,,0.11,weatherlink.com 1.10,2013-01-16 16:26:00,
2013-01-16 10:41:00,41.8,40.0,30.04,North,349,0.0,4.0,94,0.04,,,0.12,weatherlink.com 1.10,2013-01-16 16:41:00,
2013-01-16 10:56:00,42.0,40.0,30.04,NE,41,0.0,1.0,94,0.05,,,0.14,weatherlink.com 1.10,2013-01-16 16:56:00,
2013-01-16 11:11:00,42.6,41.0,30.02,ENE,75,3.0,5.0,94,0.04,,,0.14,weatherlink.com 1.10,2013-01-16 17:11:00,
2013-01-16 11:26:00,42.8,41.0,30.01,ENE,57,4.0,7.0,94,0.03,,,0.14,weatherlink.com 1.10,2013-01-16 17:26:00,
2013-01-16 11:41:00,43.3,42.0,30.00,North,355,3.0,7.0,94,0.03,,,0.15,weatherlink.com 1.10,2013-01-16 17:41:00,
2013-01-16 11:56:00,44.0,42.0,29.99,NNE,26,2.0,6.0,94,0.01,,,0.15,weatherlink.com 1.10,2013-01-16 17:56:00,
2013-01-16 12:11:00,44.1,42.0,30.00,NW,321,1.0,3.0,93,0.01,,,0.15,weatherlink.com 1.10,2013-01-16 18:11:00,
2013-01-16 12:26:00,44.0,42.0,29.99,NNE,26,2.0,6.0,93,0.01,,,0.15,weatherlink.com 1.10,2013-01-16 18:26:00,
2013-01-16 12:41:00,43.9,42.0,29.98,NW,306,0.0,6.0,94,0.00,,,0.15,weatherlink.com 1.10,2013-01-16 18:41:00,
2013-01-16 12:56:00,43.5,42.0,29.99,WNW,297,3.0,8.0,93,0.00,,,0.15,weatherlink.com 1.10,2013-01-16 18:56:00,
2013-01-16 13:11:00,43.1,41.0,30.01,NW,313,6.0,11.0,93,0.00,,,0.15,weatherlink.com 1.10,2013-01-16 19:11:00,
2013-01-16 13:26:00,42.6,41.0,30.00,NW,305,5.0,9.0,93,0.01,,,0.16,weatherlink.com 1.10,2013-01-16 19:26:00,
2013-01-16 13:41:00,42.1,40.0,30.00,WNW,301,0.0,6.0,93,0.02,,,0.17,weatherlink.com 1.10,2013-01-16 19:41:00,
2013-01-16 13:56:00,41.9,40.0,30.01,WNW,300,3.0,7.0,93,0.03,,,0.18,weatherlink.com 1.10,2013-01-16 19:56:00,
2013-01-16 14:11:00,41.9,40.0,30.00,North,360,0.0,8.0,93,0.03,,,0.18,weatherlink.com 1.10,2013-01-16 20:11:00,
2013-01-16 14:26:00,41.8,40.0,30.00,WNW,294,3.0,5.0,93,0.02,,,0.18,weatherlink.com 1.10,2013-01-16 20:26:00,
2013-01-16 14:41:00,41.7,40.0,30.01,NW,317,1.0,6.0,93,0.04,,,0.21,weatherlink.com 1.10,2013-01-16 20:41:00,
2013-01-16 14:56:00,41.6,40.0,30.01,North,360,2.0,11.0,93,0.03,,,0.21,weatherlink.com 1.10,2013-01-16 20:56:00,
2013-01-16 15:11:00,41.7,40.0,30.00,North,355,4.0,6.0,93,0.03,,,0.21,weatherlink.com 1.10,2013-01-16 21:11:00,
2013-01-16 15:26:00,41.8,40.0,30.01,NW,315,5.0,7.0,93,0.03,,,0.21,weatherlink.com 1.10,2013-01-16 21:26:00,
2013-01-16 15:41:00,41.8,40.0,30.01,NNW,333,0.0,5.0,93,0.00,,,0.21,weatherlink.com 1.10,2013-01-16 21:41:00,
2013-01-16 15:56:00,41.7,40.0,30.00,NNW,334,0.0,7.0,93,0.00,,,0.21,weatherlink.com 1.10,2013-01-16 21:56:00,
2013-01-16 16:11:00,41.6,40.0,30.01,NNE,15,4.0,4.0,93,0.00,,,0.21,weatherlink.com 1.10,2013-01-16 22:11:00,
2013-01-16 16:26:00,41.5,40.0,30.01,NW,321,0.0,4.0,93,0.00,,,0.21,weatherlink.com 1.10,2013-01-16 22:26:00,
2013-01-16 16:41:00,41.5,40.0,30.01,NW,304,3.0,3.0,93,0.00,,,0.21,weatherlink.com 1.10,2013-01-16 22:41:00,
2013-01-16 16:56:00,41.5,40.0,30.02,NW,321,0.0,4.0,93,0.00,,,0.21,weatherlink.com 1.10,2013-01-16 22:56:00,
2013-01-16 17:11:00,41.4,40.0,30.02,NE,46,0.0,3.0,93,0.00,,,0.21,weatherlink.com 1.10,2013-01-16 23:11:00,
2013-01-16 17:27:00,41.4,40.0,30.02,NNE,23,0.0,3.0,93,0.00,,,0.21,weatherlink.com 1.10,2013-01-16 23:27:00,
2013-01-16 17:42:00,41.5,40.0,30.00,North,5,4.0,5.0,94,0.00,,,0.21,weatherlink.com 1.10,2013-01-16 23:42:00,
2013-01-16 17:57:00,41.5,40.0,30.00,North,10,1.0,4.0,94,0.00,,,0.21,weatherlink.com 1.10,2013-01-16 23:57:00,
2013-01-16 18:12:00,41.6,40.0,30.00,NE,49,0.0,4.0,94,0.00,,,0.21,weatherlink.com 1.10,2013-01-17 00:12:00,
2013-01-16 18:27:00,41.6,40.0,30.01,NNE,15,2.0,2.0,94,0.00,,,0.21,weatherlink.com 1.10,2013-01-17 00:27:00,
2013-01-16 18:42:00,41.7,40.0,30.02,NW,304,0.0,4.0,94,0.00,,,0.21,weatherlink.com 1.10,2013-01-17 00:42:00,
2013-01-16 18:57:00,41.6,40.0,30.02,NW,304,0.0,7.0,94,0.00,,,0.21,weatherlink.com 1.10,2013-01-17 00:57:00,
2013-01-16 19:12:00,41.6,40.0,30.02,NE,42,2.0,4.0,94,0.00,,,0.21,weatherlink.com 1.10,2013-01-17 01:12:00,
2013-01-16 19:27:00,41.6,40.0,30.01,ENE,71,0.0,6.0,94,0.00,,,0.21,weatherlink.com 1.10,2013-01-17 01:27:00,
2013-01-16 19:42:00,41.5,40.0,30.02,NW,316,0.0,3.0,94,0.00,,,0.21,weatherlink.com 1.10,2013-01-17 01:42:00,
2013-01-16 19:57:00,41.5,40.0,30.01,WNW,286,0.0,4.0,94,0.00,,,0.21,weatherlink.com 1.10,2013-01-17 01:57:00,
2013-01-16 20:12:00,41.3,40.0,30.02,WSW,254,0.0,5.0,93,0.00,,,0.21,weatherlink.com 1.10,2013-01-17 02:12:00,
2013-01-16 20:27:00,41.2,39.0,30.02,NNE,30,0.0,5.0,93,0.00,,,0.21,weatherlink.com 1.10,2013-01-17 02:27:00,
2013-01-16 20:42:00,41.3,40.0,30.00,NE,36,3.0,6.0,94,0.00,,,0.21,weatherlink.com 1.10,2013-01-17 02:42:00,
2013-01-16 20:57:00,41.2,40.0,29.99,ENE,66,3.0,4.0,94,0.00,,,0.21,weatherlink.com 1.10,2013-01-17 02:57:00,
2013-01-16 21:12:00,41.2,40.0,29.98,WNW,293,1.0,7.0,94,0.00,,,0.21,weatherlink.com 1.10,2013-01-17 03:12:00,
2013-01-16 21:27:00,41.0,39.0,29.98,NE,49,0.0,7.0,94,0.00,,,0.21,weatherlink.com 1.10,2013-01-17 03:27:00,
2013-01-16 21:42:00,40.9,39.0,30.00,WNW,298,4.0,7.0,94,0.00,,,0.21,weatherlink.com 1.10,2013-01-17 03:42:00,
2013-01-16 21:57:00,40.7,39.0,30.01,WNW,287,10.0,11.0,93,0.00,,,0.21,weatherlink.com 1.10,2013-01-17 03:57:00,
2013-01-16 22:12:00,40.6,39.0,29.98,ESE,107,3.0,7.0,93,0.00,,,0.21,weatherlink.com 1.10,2013-01-17 04:12:00,
2013-01-16 22:27:00,40.5,39.0,29.99,WNW,298,6.0,10.0,93,0.00,,,0.21,weatherlink.com 1.10,2013-01-17 04:27:00,
2013-01-16 22:42:00,40.4,39.0,29.99,WNW,294,4.0,7.0,94,0.00,,,0.21,weatherlink.com 1.10,2013-01-17 04:42:00,
2013-01-16 22:57:00,40.4,39.0,29.98,SE,138,0.0,5.0,94,0.00,,,0.21,weatherlink.com 1.10,2013-01-17 04:57:00,
2013-01-16 23:12:00,40.4,39.0,29.99,NW,311,1.0,4.0,94,0.00,,,0.21,weatherlink.com 1.10,2013-01-17 05:12:00,
2013-01-16 23:27:00,40.4,39.0,29.98,NW,315,2.0,8.0,94,0.00,,,0.21,weatherlink.com 1.10,2013-01-17 05:27:00,
2013-01-16 23:42:00,40.3,39.0,29.98,North,355,2.0,7.0,94,0.00,,,0.21,weatherlink.com 1.10,2013-01-17 05:42:00,
2013-01-16 23:57:00,40.3,39.0,29.97,NNE,19,2.0,7.0,94,0.00,,,0.21,weatherlink.com 1.10,2013-01-17 05:57:00,